Time;durP1;ratioP1;P1;durP2;ratioP2;P2;SDS_P1;SDS_P2;PMS_P1;PMS_P2;Temp;Humidity;BMP_temperature;BMP_pressure;BME280_temperature;BME280_humidity;BME280_pressure;Samples;Min_cycle;Max_cycle;Signal;HPM_P1;HPM_P2
2021/10/14 00:02:24;;;;;;;7.13;2.42;;;11.30;99.90;;;;;;4998330;28;20022;-77
2021/10/14 00:04:49;;;;;;;5.57;2.30;;;11.30;99.90;;;;;;4998796;28;20475;-77
2021/10/14 00:07:15;;;;;;;10.90;3.28;;;11.30;99.90;;;;;;4997234;28;20547;-77
2021/10/14 00:09:40;;;;;;;5.05;1.98;;;11.40;99.90;;;;;;4997984;28;20422;-77
2021/10/14 00:12:06;;;;;;;8.02;2.15;;;11.40;99.90;;;;;;4997898;28;20022;-77
2021/10/14 00:14:32;;;;;;;12.30;2.63;;;11.30;99.90;;;;;;4997933;28;20027;-77
2021/10/14 00:16:57;;;;;;;6.07;1.65;;;11.40;99.90;;;;;;4996479;28;20030;-77
2021/10/14 00:19:23;;;;;;;6.78;2.05;;;11.40;99.90;;;;;;4997381;28;20105;-77
2021/10/14 00:21:49;;;;;;;9.25;2.63;;;11.40;99.90;;;;;;4997197;28;20037;-77
2021/10/14 00:24:15;;;;;;;12.80;2.97;;;11.40;99.90;;;;;;4997266;28;20051;-77
2021/10/14 00:26:43;;;;;;;6.68;1.95;;;11.40;99.90;;;;;;4997572;28;20037;-77
2021/10/14 00:29:08;;;;;;;5.87;2.33;;;11.40;99.90;;;;;;4997497;28;20483;-77
2021/10/14 00:31:34;;;;;;;8.68;2.60;;;11.40;99.90;;;;;;4996497;28;20281;-77
2021/10/14 00:33:59;;;;;;;6.50;2.45;;;11.50;99.90;;;;;;4996483;28;20061;-77
2021/10/14 00:36:25;;;;;;;13.55;3.35;;;11.50;99.90;;;;;;4996394;28;20085;-77
2021/10/14 00:38:50;;;;;;;6.68;2.60;;;11.50;99.90;;;;;;4996310;28;20028;-77
2021/10/14 00:41:16;;;;;;;5.82;3.05;;;11.50;99.90;;;;;;4996451;28;20073;-77
2021/10/14 00:43:42;;;;;;;8.15;3.45;;;11.50;99.90;;;;;;4996365;28;20026;-77
2021/10/14 00:46:16;;;;;;;15.68;4.10;;;11.60;99.90;;;;;;4995558;28;20376;-79
2021/10/14 00:48:41;;;;;;;9.63;3.90;;;11.60;99.90;;;;;;4997783;28;20022;-79
2021/10/14 00:51:07;;;;;;;9.05;3.88;;;11.60;99.90;;;;;;4997797;28;20080;-79
2021/10/14 00:53:38;;;;;;;10.88;4.05;;;11.70;99.90;;;;;;4995522;28;20026;-78
2021/10/14 00:56:05;;;;;;;9.73;4.15;;;11.70;99.90;;;;;;4995285;28;20021;-79
2021/10/14 00:58:31;;;;;;;13.82;4.78;;;11.70;99.90;;;;;;4997264;28;20262;-81
2021/10/14 01:00:57;;;;;;;10.07;4.80;;;11.70;99.90;;;;;;4996302;28;20476;-81
2021/10/14 01:03:23;;;;;;;10.68;4.50;;;11.70;99.90;;;;;;4997901;28;20034;-81
2021/10/14 01:05:48;;;;;;;9.70;4.80;;;11.70;99.90;;;;;;4996014;28;20547;-81
2021/10/14 01:08:14;;;;;;;13.70;5.18;;;11.70;99.90;;;;;;4996884;28;20046;-81
2021/10/14 01:10:39;;;;;;;16.23;5.97;;;11.70;99.90;;;;;;4997533;28;20118;-81
2021/10/14 01:13:05;;;;;;;22.52;5.68;;;11.70;99.90;;;;;;4995891;28;20027;-81
2021/10/14 01:15:31;;;;;;;12.68;5.07;;;11.80;99.90;;;;;;4997139;28;20090;-81
2021/10/14 01:17:56;;;;;;;12.50;5.93;;;11.70;99.90;;;;;;4995602;28;20042;-81
2021/10/14 01:20:23;;;;;;;15.00;6.32;;;11.80;99.90;;;;;;4997189;28;20033;-82
2021/10/14 01:22:48;;;;;;;16.30;6.57;;;11.80;99.90;;;;;;4995670;28;20091;-81
2021/10/14 01:25:14;;;;;;;13.60;6.15;;;11.80;99.90;;;;;;4996013;28;20121;-81
2021/10/14 01:27:39;;;;;;;15.75;6.40;;;11.80;99.90;;;;;;4996800;28;20030;-81
2021/10/14 01:30:07;;;;;;;17.17;6.47;;;11.90;99.90;;;;;;4996777;28;20034;-81
2021/10/14 01:32:33;;;;;;;18.95;6.75;;;11.90;99.90;;;;;;4994797;28;20049;-81
2021/10/14 01:34:58;;;;;;;17.45;6.65;;;11.90;99.90;;;;;;4995248;28;20490;-81
2021/10/14 01:37:24;;;;;;;16.70;7.00;;;11.90;99.90;;;;;;4996789;28;20022;-81
2021/10/14 01:39:49;;;;;;;20.88;7.22;;;11.90;99.90;;;;;;4995548;28;20041;-81
2021/10/14 01:42:15;;;;;;;21.33;8.00;;;11.90;99.90;;;;;;4995100;28;20026;-80
2021/10/14 01:44:42;;;;;;;16.83;8.18;;;11.90;99.90;;;;;;4994643;28;20026;-80
2021/10/14 01:47:08;;;;;;;19.80;7.68;;;11.90;99.90;;;;;;4996430;28;20034;-81
2021/10/14 01:49:34;;;;;;;20.42;7.80;;;11.90;99.90;;;;;;4995042;28;20084;-81
2021/10/14 01:52:00;;;;;;;16.27;7.55;;;12.00;99.90;;;;;;4996506;28;20490;-81
2021/10/14 01:54:25;;;;;;;16.73;7.60;;;12.00;99.90;;;;;;4995272;28;20396;-80
2021/10/14 01:56:51;;;;;;;22.42;7.68;;;12.00;99.90;;;;;;4996476;28;20028;-80
2021/10/14 01:59:16;;;;;;;18.20;7.68;;;11.90;99.90;;;;;;4995667;28;20022;-78
2021/10/14 02:01:42;;;;;;;20.23;7.95;;;12.00;99.90;;;;;;4996598;28;20037;-79
2021/10/14 02:04:07;;;;;;;19.20;8.70;;;12.00;99.90;;;;;;4995509;28;20035;-79
2021/10/14 02:06:33;;;;;;;21.65;8.52;;;12.00;99.90;;;;;;4995788;28;20487;-79
2021/10/14 02:08:58;;;;;;;23.20;8.00;;;12.10;99.90;;;;;;4997096;28;20026;-79
2021/10/14 02:11:24;;;;;;;20.17;8.25;;;12.00;99.90;;;;;;4996074;28;20471;-79
2021/10/14 02:13:49;;;;;;;20.70;8.52;;;12.00;99.90;;;;;;4996533;28;20101;-79
2021/10/14 02:16:15;;;;;;;18.33;7.60;;;12.00;99.90;;;;;;4995082;28;20022;-79
2021/10/14 02:18:40;;;;;;;20.20;8.75;;;12.00;99.90;;;;;;4996481;28;20054;-79
2021/10/14 02:21:06;;;;;;;18.65;8.32;;;12.10;99.90;;;;;;4996810;28;20021;-78
2021/10/14 02:23:32;;;;;;;23.80;9.40;;;12.10;99.90;;;;;;4995674;28;20502;-79
2021/10/14 02:25:57;;;;;;;21.50;7.93;;;12.10;99.90;;;;;;4995448;28;20074;-79
2021/10/14 02:28:23;;;;;;;22.83;8.00;;;12.10;99.90;;;;;;4995364;28;20030;-79
2021/10/14 02:30:48;;;;;;;26.75;8.25;;;12.10;99.90;;;;;;4996885;28;20042;-79
2021/10/14 02:33:14;;;;;;;19.75;7.75;;;12.10;99.90;;;;;;4996350;28;20030;-79
2021/10/14 02:35:40;;;;;;;19.60;8.02;;;12.10;99.90;;;;;;4994668;28;20018;-80
2021/10/14 02:38:06;;;;;;;19.50;8.35;;;12.10;99.90;;;;;;4978818;28;20042;-81
2021/10/14 02:40:32;;;;;;;23.40;9.68;;;12.20;99.90;;;;;;4996309;28;20077;-80
2021/10/14 02:42:58;;;;;;;23.52;9.23;;;13.90;99.90;;;;;;4996003;28;20030;-80
2021/10/14 02:45:23;;;;;;;24.35;10.27;;;12.20;99.90;;;;;;4994242;28;20364;-80
2021/10/14 02:47:49;;;;;;;21.70;9.57;;;12.20;99.90;;;;;;4994182;28;20026;-80
2021/10/14 02:50:14;;;;;;;19.95;9.32;;;12.20;99.90;;;;;;4996102;28;20050;-80
2021/10/14 02:52:40;;;;;;;26.10;9.88;;;12.30;99.90;;;;;;4994586;28;20476;-79
2021/10/14 02:55:06;;;;;;;24.58;10.15;;;12.30;99.90;;;;;;4992910;28;20021;-79
2021/10/14 02:57:31;;;;;;;25.48;9.00;;;12.20;99.90;;;;;;4994925;28;20026;-80
2021/10/14 02:59:57;;;;;;;25.40;10.13;;;12.20;99.90;;;;;;4994107;28;20018;-80
2021/10/14 03:02:22;;;;;;;25.65;10.05;;;12.20;99.90;;;;;;4993901;28;20041;-80
2021/10/14 03:04:48;;;;;;;28.60;10.70;;;12.20;99.90;;;;;;4994293;28;20026;-81
2021/10/14 03:07:13;;;;;;;24.13;9.80;;;12.20;99.90;;;;;;4995192;28;20034;-81
2021/10/14 03:09:39;;;;;;;25.90;9.50;;;12.20;99.90;;;;;;4995503;28;20100;-81
2021/10/14 03:12:05;;;;;;;26.13;10.55;;;12.20;99.90;;;;;;4994185;28;20424;-81
2021/10/14 03:14:30;;;;;;;25.50;9.70;;;13.80;99.90;;;;;;4996284;28;20080;-81
2021/10/14 03:16:56;;;;;;;28.10;9.38;;;12.20;99.90;;;;;;4995475;28;20472;-81
2021/10/14 03:19:22;;;;;;;27.67;10.13;;;12.20;99.90;;;;;;4995528;28;20042;-81
2021/10/14 03:21:48;;;;;;;21.90;8.60;;;12.20;99.90;;;;;;4996217;28;20023;-81
2021/10/14 03:24:13;;;;;;;26.45;10.00;;;13.70;99.90;;;;;;4997714;28;20031;-82
2021/10/14 03:26:39;;;;;;;29.35;10.80;;;12.20;99.90;;;;;;4999633;28;20019;-82
2021/10/14 03:29:04;;;;;;;28.02;9.40;;;12.20;99.90;;;;;;4998140;28;20018;-82
2021/10/14 03:31:30;;;;;;;28.95;10.27;;;12.20;99.90;;;;;;4998230;28;20022;-82
2021/10/14 03:33:56;;;;;;;27.92;10.10;;;13.50;99.90;;;;;;4997543;28;20030;-81
2021/10/14 03:36:22;;;;;;;28.20;9.68;;;12.30;99.90;;;;;;4999828;28;20411;-80
2021/10/14 03:38:48;;;;;;;21.20;8.68;;;13.00;99.90;;;;;;4998296;28;20022;-79
2021/10/14 03:41:13;;;;;;;25.63;9.73;;;12.10;99.90;;;;;;4999983;28;20036;-80
2021/10/14 03:43:39;;;;;;;28.60;10.25;;;12.10;99.90;;;;;;4998195;28;20020;-80
2021/10/14 03:46:04;;;;;;;29.15;9.93;;;12.20;99.90;;;;;;4997946;28;20084;-81
2021/10/14 03:48:30;;;;;;;24.88;10.45;;;12.20;99.90;;;;;;4998783;28;20033;-81
2021/10/14 03:50:55;;;;;;;27.48;8.93;;;12.20;99.90;;;;;;5001005;28;20035;-81
2021/10/14 03:53:21;;;;;;;22.40;9.52;;;12.20;99.90;;;;;;4999348;28;20026;-80
2021/10/14 03:55:46;;;;;;;31.88;11.63;;;12.20;99.90;;;;;;5000802;28;20026;-80
2021/10/14 03:58:12;;;;;;;29.83;10.30;;;12.20;99.90;;;;;;5000701;28;20025;-80
2021/10/14 04:00:37;;;;;;;27.60;10.10;;;12.10;99.90;;;;;;4998630;28;20019;-80
2021/10/14 04:03:03;;;;;;;23.20;9.45;;;12.40;99.90;;;;;;5000695;28;20022;-81
2021/10/14 04:05:29;;;;;;;24.33;9.73;;;12.20;99.90;;;;;;4999489;28;20022;-80
2021/10/14 04:07:54;;;;;;;23.80;9.95;;;12.30;99.90;;;;;;4999700;28;20073;-80
2021/10/14 04:10:20;;;;;;;28.02;10.30;;;12.20;99.90;;;;;;4999589;28;20028;-80
2021/10/14 04:12:46;;;;;;;22.67;8.85;;;12.20;99.90;;;;;;4996986;28;20030;-78
2021/10/14 04:15:12;;;;;;;27.33;10.35;;;12.20;99.90;;;;;;4996323;28;20038;-79
2021/10/14 04:17:37;;;;;;;22.75;9.73;;;12.20;99.90;;;;;;4996767;28;20102;-78
2021/10/14 04:20:06;;;;;;;20.85;9.30;;;12.10;99.90;;;;;;4996388;28;20070;-78
2021/10/14 04:22:31;;;;;;;23.75;10.07;;;12.10;99.90;;;;;;4996363;28;20035;-78
2021/10/14 04:24:57;;;;;;;25.75;10.70;;;12.10;99.90;;;;;;4997747;28;20544;-80
2021/10/14 04:27:23;;;;;;;25.13;9.55;;;12.20;99.90;;;;;;4999328;28;20040;-80
2021/10/14 04:29:48;;;;;;;24.42;9.95;;;12.20;99.90;;;;;;5000565;28;20050;-79
2021/10/14 04:32:15;;;;;;;26.50;9.40;;;12.20;99.90;;;;;;4999099;28;20023;-80
2021/10/14 04:34:41;;;;;;;25.27;10.18;;;12.20;99.90;;;;;;5000128;28;20019;-80
2021/10/14 04:37:07;;;;;;;29.67;11.35;;;12.20;99.90;;;;;;4999118;28;20390;-80
2021/10/14 04:39:34;;;;;;;27.20;10.65;;;12.20;99.90;;;;;;5001317;28;20018;-81
2021/10/14 04:42:00;;;;;;;25.27;10.02;;;12.20;99.90;;;;;;5000957;28;20030;-81
2021/10/14 04:44:25;;;;;;;21.95;9.85;;;12.20;99.90;;;;;;5001173;28;20033;-81
2021/10/14 04:46:51;;;;;;;27.25;9.73;;;12.20;99.90;;;;;;5000524;28;20034;-80
2021/10/14 04:49:17;;;;;;;21.60;9.88;;;12.20;99.90;;;;;;4999261;28;20038;-79
2021/10/14 04:51:42;;;;;;;25.80;11.30;;;12.20;99.90;;;;;;5000413;28;20057;-80
2021/10/14 04:54:08;;;;;;;23.50;10.50;;;12.20;99.90;;;;;;4999903;28;20022;-80
2021/10/14 04:56:34;;;;;;;21.42;8.85;;;12.20;99.90;;;;;;4999627;28;20042;-80
2021/10/14 04:58:59;;;;;;;23.17;10.00;;;12.20;99.90;;;;;;5001436;28;20029;-80
2021/10/14 05:01:25;;;;;;;21.33;9.75;;;12.20;99.90;;;;;;4997584;28;20019;-79
2021/10/14 05:03:50;;;;;;;25.00;9.95;;;12.20;99.90;;;;;;4998275;28;20034;-79
2021/10/14 05:06:16;;;;;;;24.83;8.68;;;12.20;99.90;;;;;;5001106;28;20049;-80
2021/10/14 05:08:41;;;;;;;21.52;9.13;;;12.20;99.90;;;;;;4998909;28;20036;-80
2021/10/14 05:11:13;;;;;;;27.85;10.38;;;12.20;99.90;;;;;;5000470;28;20038;-79
2021/10/14 05:13:40;;;;;;;21.10;8.00;;;12.20;99.90;;;;;;4998476;28;20011;-81
2021/10/14 05:16:06;;;;;;;23.20;9.18;;;12.60;99.90;;;;;;4997640;28;20077;-81
2021/10/14 05:18:31;;;;;;;25.75;10.40;;;12.20;99.90;;;;;;4999553;28;20027;-79
2021/10/14 05:20:57;;;;;;;19.30;8.85;;;12.20;99.90;;;;;;5000287;28;20025;-79
2021/10/14 05:23:22;;;;;;;27.65;8.95;;;12.20;99.90;;;;;;4999495;28;20026;-78
2021/10/14 05:25:48;;;;;;;22.45;9.30;;;12.20;99.90;;;;;;4993935;28;20033;-78
2021/10/14 05:28:15;;;;;;;26.20;9.10;;;12.30;99.90;;;;;;4995252;28;20026;-78
2021/10/14 05:30:41;;;;;;;27.77;9.75;;;12.30;99.90;;;;;;4993514;28;20037;-78
2021/10/14 05:33:06;;;;;;;20.13;9.25;;;12.20;99.90;;;;;;4994636;28;20031;-78
2021/10/14 05:35:32;;;;;;;24.33;8.95;;;12.20;99.90;;;;;;4994763;28;20026;-76
2021/10/14 05:37:58;;;;;;;25.17;9.85;;;12.30;99.90;;;;;;4995012;28;20467;-78
2021/10/14 05:40:24;;;;;;;18.95;9.38;;;12.30;99.90;;;;;;4994674;28;20029;-78
2021/10/14 05:42:49;;;;;;;19.15;8.45;;;12.30;99.90;;;;;;4994819;28;20025;-78
2021/10/14 05:45:15;;;;;;;21.95;10.02;;;12.30;99.90;;;;;;4994130;28;20332;-79
2021/10/14 05:47:40;;;;;;;21.40;10.18;;;12.30;99.90;;;;;;4998358;28;20037;-79
2021/10/14 05:50:07;;;;;;;23.77;10.27;;;12.40;99.90;;;;;;4995037;28;20023;-79
2021/10/14 05:52:33;;;;;;;28.20;9.85;;;12.40;99.90;;;;;;4993188;28;20034;-78
2021/10/14 05:55:01;;;;;;;22.17;9.52;;;12.30;99.90;;;;;;4994758;28;20027;-78
2021/10/14 05:57:27;;;;;;;20.13;10.25;;;12.30;99.90;;;;;;4993697;28;20467;-77
2021/10/14 05:59:52;;;;;;;25.40;9.20;;;12.30;99.90;;;;;;4994647;28;20029;-77
2021/10/14 06:02:18;;;;;;;18.98;9.18;;;12.30;99.90;;;;;;4994587;28;20023;-78
2021/10/14 06:04:43;;;;;;;23.25;9.43;;;15.40;99.90;;;;;;4993485;28;20026;-79
2021/10/14 06:07:09;;;;;;;24.73;10.10;;;12.40;99.90;;;;;;4994862;28;20080;-79
2021/10/14 06:09:35;;;;;;;30.30;11.02;;;12.40;99.90;;;;;;4993867;28;20027;-79
2021/10/14 06:12:00;;;;;;;25.27;9.18;;;12.40;99.90;;;;;;4995019;28;20392;-79
2021/10/14 06:14:26;;;;;;;27.10;9.52;;;12.40;99.90;;;;;;4996643;28;20547;-79
2021/10/14 06:16:51;;;;;;;23.98;10.07;;;12.40;99.90;;;;;;4996879;28;20026;-80
2021/10/14 06:19:17;;;;;;;23.38;9.90;;;12.40;99.90;;;;;;4995240;28;20027;-79
2021/10/14 06:21:42;;;;;;;19.17;9.48;;;12.50;99.90;;;;;;4997449;28;20046;-78
2021/10/14 06:24:08;;;;;;;23.85;9.63;;;12.50;99.90;;;;;;4997406;28;20072;-78
2021/10/14 06:26:33;;;;;;;22.73;9.82;;;12.50;99.90;;;;;;4997907;28;20109;-78
2021/10/14 06:28:59;;;;;;;25.65;9.93;;;12.50;99.90;;;;;;4995171;28;20102;-78
2021/10/14 06:31:24;;;;;;;25.80;9.85;;;12.50;99.90;;;;;;4994455;28;20031;-79
2021/10/14 06:33:50;;;;;;;26.15;9.65;;;12.60;99.90;;;;;;4995110;28;20031;-79
2021/10/14 06:36:16;;;;;;;24.55;9.80;;;12.60;99.90;;;;;;4995517;28;20392;-79
2021/10/14 06:38:41;;;;;;;26.05;10.18;;;12.60;99.90;;;;;;4996029;28;20081;-80
2021/10/14 06:41:07;;;;;;;27.15;10.70;;;12.60;99.90;;;;;;4994126;28;20029;-80
2021/10/14 06:43:32;;;;;;;24.60;10.13;;;12.60;99.90;;;;;;4993246;28;20057;-78
2021/10/14 06:45:58;;;;;;;23.85;9.68;;;12.70;99.90;;;;;;4993865;28;20030;-78
2021/10/14 06:48:23;;;;;;;22.10;9.95;;;12.70;99.90;;;;;;4995545;28;20046;-78
2021/10/14 06:50:49;;;;;;;20.05;8.02;;;12.70;99.90;;;;;;5026376;28;20042;-79
2021/10/14 06:53:15;;;;;;;25.45;9.57;;;12.60;99.90;;;;;;4994983;28;20042;-78
2021/10/14 06:55:41;;;;;;;18.95;8.75;;;12.70;99.90;;;;;;4993549;28;20181;-78
2021/10/14 06:58:06;;;;;;;21.65;8.73;;;12.70;99.90;;;;;;4995182;28;20030;-78
2021/10/14 07:00:32;;;;;;;25.17;8.88;;;12.70;99.90;;;;;;4998707;28;20027;-79
2021/10/14 07:02:58;;;;;;;17.77;8.45;;;12.70;99.90;;;;;;4998764;28;20176;-79
2021/10/14 07:05:23;;;;;;;19.75;8.32;;;12.70;99.90;;;;;;4997892;28;20487;-79
2021/10/14 07:07:49;;;;;;;20.63;7.88;;;12.70;99.90;;;;;;4997530;28;20030;-79
2021/10/14 07:10:15;;;;;;;24.20;8.48;;;12.70;99.90;;;;;;4997090;28;20081;-79
2021/10/14 07:12:42;;;;;;;19.08;7.60;;;12.70;99.90;;;;;;4996761;28;20455;-79
2021/10/14 07:15:08;;;;;;;20.92;8.35;;;12.70;99.90;;;;;;4996953;28;20118;-79
2021/10/14 07:17:34;;;;;;;24.58;9.45;;;12.80;99.90;;;;;;4998709;28;20027;-79
2021/10/14 07:20:00;;;;;;;21.65;8.25;;;12.80;99.90;;;;;;4996846;28;20030;-79
2021/10/14 07:22:25;;;;;;;23.50;8.65;;;12.80;99.90;;;;;;4997320;28;20117;-79
2021/10/14 07:24:51;;;;;;;18.98;8.40;;;12.80;99.90;;;;;;4997864;28;20124;-79
2021/10/14 07:27:17;;;;;;;22.27;8.80;;;12.90;99.90;;;;;;4996940;28;20027;-79
2021/10/14 07:29:42;;;;;;;18.58;7.53;;;12.90;99.90;;;;;;4998880;28;20082;-79
2021/10/14 07:32:08;;;;;;;22.02;7.55;;;12.90;99.90;;;;;;4997119;28;20069;-79
2021/10/14 07:34:34;;;;;;;17.17;7.82;;;12.90;99.90;;;;;;4997716;28;20026;-79
2021/10/14 07:37:01;;;;;;;21.42;8.65;;;13.00;99.90;;;;;;4996391;28;20156;-78
2021/10/14 07:39:27;;;;;;;19.10;7.60;;;13.00;99.90;;;;;;4997001;28;20042;-78
2021/10/14 07:41:53;;;;;;;16.67;6.20;;;13.00;99.90;;;;;;5000135;28;20109;-79
2021/10/14 07:44:19;;;;;;;19.00;8.02;;;13.00;99.90;;;;;;5032423;28;20089;-79
2021/10/14 07:46:46;;;;;;;19.42;7.85;;;13.00;99.90;;;;;;5000537;28;20046;-79
2021/10/14 07:49:13;;;;;;;20.67;7.28;;;13.00;99.90;;;;;;4997770;28;20033;-79
2021/10/14 07:51:39;;;;;;;18.50;7.97;;;13.10;99.90;;;;;;4999268;28;20050;-79
2021/10/14 07:54:05;;;;;;;21.00;7.40;;;13.10;99.90;;;;;;4998515;28;20427;-79
2021/10/14 07:56:32;;;;;;;16.50;6.78;;;13.10;99.90;;;;;;4996001;28;20081;-78
2021/10/14 07:58:58;;;;;;;19.08;7.72;;;13.10;99.90;;;;;;4997144;28;20033;-79
2021/10/14 08:01:24;;;;;;;16.98;6.75;;;13.20;99.90;;;;;;4996039;28;20484;-76
2021/10/14 08:03:50;;;;;;;17.33;7.00;;;13.20;99.90;;;;;;4997517;28;20026;-75
2021/10/14 08:06:15;;;;;;;14.27;6.80;;;13.20;99.90;;;;;;4996708;28;20114;-77
2021/10/14 08:08:41;;;;;;;15.45;6.47;;;13.30;99.90;;;;;;4999155;28;20378;-79
2021/10/14 08:11:07;;;;;;;16.70;6.32;;;13.30;99.90;;;;;;4998869;28;20037;-79
2021/10/14 08:13:34;;;;;;;17.38;6.68;;;13.30;99.90;;;;;;5001314;28;20026;-79
2021/10/14 08:16:00;;;;;;;18.48;7.13;;;13.30;99.90;;;;;;5000831;28;20022;-79
2021/10/14 08:18:27;;;;;;;13.48;5.72;;;13.30;99.90;;;;;;4999520;28;20479;-77
2021/10/14 08:20:54;;;;;;;13.60;7.00;;;13.30;99.90;;;;;;5000106;28;20026;-78
2021/10/14 08:23:25;;;;;;;14.48;6.43;;;13.40;99.90;;;;;;4999139;28;20033;-77
2021/10/14 08:25:52;;;;;;;18.60;6.30;;;13.40;99.90;;;;;;4999456;28;20015;-77
2021/10/14 08:28:18;;;;;;;15.93;5.97;;;13.60;99.90;;;;;;4996854;28;20023;-77
2021/10/14 08:30:44;;;;;;;15.32;6.38;;;13.40;99.90;;;;;;4996938;28;20018;-77
2021/10/14 08:33:10;;;;;;;12.43;5.53;;;13.50;99.90;;;;;;4997982;28;20030;-76
2021/10/14 08:35:36;;;;;;;22.08;6.82;;;13.50;99.90;;;;;;4995779;28;20022;-74
2021/10/14 08:38:06;;;;;;;16.40;6.72;;;13.60;99.90;;;;;;5029539;28;20022;-75
2021/10/14 08:40:33;;;;;;;16.77;6.55;;;13.70;99.90;;;;;;4997978;28;20026;-75
2021/10/14 08:43:00;;;;;;;14.60;6.10;;;13.70;99.90;;;;;;4999301;28;20022;-75
2021/10/14 08:45:28;;;;;;;15.48;5.78;;;13.70;99.90;;;;;;4999153;28;20387;-75
2021/10/14 08:47:57;;;;;;;15.43;5.90;;;13.70;99.90;;;;;;4998602;28;20022;-75
2021/10/14 08:50:22;;;;;;;17.50;5.28;;;13.70;99.90;;;;;;4999369;28;20436;-75
2021/10/14 08:52:48;;;;;;;12.68;5.75;;;13.70;99.90;;;;;;5030587;28;20061;-75
2021/10/14 08:55:13;;;;;;;11.98;5.72;;;13.60;99.90;;;;;;4998919;28;20026;-75
2021/10/14 08:57:39;;;;;;;16.83;6.22;;;13.70;99.90;;;;;;4997830;28;20011;-75
2021/10/14 09:00:05;;;;;;;16.85;6.35;;;13.70;99.90;;;;;;4998812;28;20093;-75
2021/10/14 09:02:31;;;;;;;18.55;6.93;;;13.70;99.90;;;;;;4998979;28;20023;-75
2021/10/14 09:05:07;;;;;;;13.60;5.90;;;13.70;99.90;;;;;;4997523;28;20130;-75
2021/10/14 09:07:33;;;;;;;16.33;6.60;;;13.80;99.90;;;;;;4998966;28;20033;-75
2021/10/14 09:10:01;;;;;;;13.57;6.68;;;13.80;99.90;;;;;;4999039;28;20018;-75
2021/10/14 09:12:36;;;;;;;16.00;7.10;;;13.90;99.90;;;;;;4998992;28;20109;-75
2021/10/14 09:15:03;;;;;;;16.42;6.68;;;14.00;99.90;;;;;;4997545;28;20018;-75
2021/10/14 09:17:38;;;;;;;15.30;5.85;;;14.10;99.90;;;;;;4998616;28;20046;-75
2021/10/14 09:20:24;;;;;;;14.65;6.53;;;14.20;99.90;;;;;;4999042;28;20470;-75
2021/10/14 09:23:01;;;;;;;12.75;6.22;;;14.30;99.90;;;;;;4998236;28;20109;-75
2021/10/14 09:25:29;;;;;;;18.38;6.93;;;14.30;99.90;;;;;;4998502;28;20030;-75
2021/10/14 09:28:08;;;;;;;16.52;6.55;;;14.40;99.90;;;;;;4998315;28;20081;-75
2021/10/14 09:30:43;;;;;;;18.77;7.18;;;14.50;99.90;;;;;;4996717;28;20069;-75
2021/10/14 09:33:40;;;;;;;15.68;6.32;;;14.60;99.90;;;;;;4998319;28;20026;-75
2021/10/14 09:36:27;;;;;;;14.52;6.28;;;14.70;99.90;;;;;;4994548;28;20026;-75
2021/10/14 09:38:54;;;;;;;17.15;6.70;;;14.80;99.90;;;;;;4998490;28;20081;-75
2021/10/14 09:41:21;;;;;;;16.52;6.82;;;14.90;99.90;;;;;;4998056;28;20034;-75
2021/10/14 09:43:50;;;;;;;15.32;6.72;;;15.00;99.90;;;;;;4999419;28;20053;-76
2021/10/14 09:46:43;;;;;;;18.17;6.57;;;15.10;99.90;;;;;;4996242;28;20472;-75
2021/10/14 09:49:14;;;;;;;12.63;5.53;;;15.20;99.90;;;;;;4994602;28;20050;-75
2021/10/14 09:51:41;;;;;;;12.52;5.85;;;15.20;99.90;;;;;;4993106;28;20018;-75
2021/10/14 09:54:07;;;;;;;11.10;4.90;;;15.20;99.90;;;;;;4994457;28;20018;-75
2021/10/14 09:56:33;;;;;;;14.30;6.65;;;15.20;99.90;;;;;;4993127;28;20029;-75
2021/10/14 09:59:01;;;;;;;12.40;4.93;;;15.20;99.90;;;;;;4994401;28;20018;-75
2021/10/14 10:01:28;;;;;;;14.50;5.90;;;15.20;99.90;;;;;;4994402;28;20023;-75
2021/10/14 10:03:57;;;;;;;11.30;4.97;;;15.10;99.90;;;;;;4994630;28;20022;-76
2021/10/14 10:06:28;;;;;;;10.65;4.88;;;15.10;99.90;;;;;;4994261;28;20113;-76
2021/10/14 10:08:55;;;;;;;10.95;5.22;;;15.10;99.90;;;;;;4994227;28;20022;-76
2021/10/14 10:11:23;;;;;;;11.85;5.32;;;15.00;99.90;;;;;;4994356;28;20037;-76
2021/10/14 10:13:52;;;;;;;11.55;5.28;;;14.90;99.90;;;;;;4994469;28;20149;-76
2021/10/14 10:16:23;;;;;;;14.30;5.50;;;14.80;99.90;;;;;;4992933;28;20031;-76
2021/10/14 10:18:52;;;;;;;8.93;4.38;;;14.70;99.90;;;;;;4994132;28;20023;-76
2021/10/14 10:21:26;;;;;;;;;;;14.80;99.90;;;;;;4994670;28;20023;-76
2021/10/14 10:23:52;;;;;;;12.63;5.00;;;14.90;99.90;;;;;;4992874;28;19910;-76
2021/10/14 10:26:44;;;;;;;12.68;4.18;;;15.00;99.90;;;;;;4994138;28;20045;-76
2021/10/14 10:29:13;;;;;;;8.95;3.72;;;15.10;99.90;;;;;;4992399;28;20484;-76
2021/10/14 10:32:02;;;;;;;10.40;3.95;;;15.20;99.90;;;;;;4993914;28;20395;-76
2021/10/14 10:34:43;;;;;;;8.57;3.30;;;15.20;99.90;;;;;;4987401;28;20065;-76
2021/10/14 10:37:20;;;;;;;5.53;3.08;;;15.30;99.90;;;;;;4994215;28;20031;-76
2021/10/14 10:39:48;;;;;;;7.68;2.95;;;15.60;99.90;;;;;;4994018;28;20022;-76
2021/10/14 10:42:24;;;;;;;5.97;2.70;;;15.80;99.90;;;;;;4993810;28;20117;-76
2021/10/14 10:44:50;;;;;;;8.40;2.22;;;16.00;99.90;;;;;;4993774;28;20361;-76
2021/10/14 10:47:48;;;;;;;6.95;2.65;;;16.10;99.90;;;;;;4994322;28;20026;-76
2021/10/14 10:50:24;;;;;;;6.63;2.40;;;16.20;99.90;;;;;;4993721;28;20033;-76
2021/10/14 10:53:09;;;;;;;5.18;2.60;;;16.40;99.90;;;;;;4993685;28;20101;-76
2021/10/14 10:55:41;;;;;;;7.32;3.55;;;16.60;99.90;;;;;;4998064;28;20046;-77
2021/10/14 10:58:09;;;;;;;7.22;2.95;;;16.40;99.90;;;;;;4996036;28;20027;-76
2021/10/14 11:00:38;;;;;;;9.27;2.60;;;16.30;99.90;;;;;;4996215;28;20498;-77
2021/10/14 11:03:12;;;;;;;7.22;2.80;;;16.20;99.90;;;;;;4997267;28;20050;-77
2021/10/14 11:06:06;;;;;;;9.98;3.42;;;16.10;99.90;;;;;;4997500;28;20105;-77
2021/10/14 11:08:34;;;;;;;8.88;3.28;;;15.90;99.90;;;;;;4988288;28;20511;-76
2021/10/14 11:11:06;;;;;;;6.53;2.78;;;15.90;99.90;;;;;;4993496;28;20112;-76
2021/10/14 11:13:33;;;;;;;6.88;2.72;;;15.90;99.90;;;;;;4993703;28;20038;-76
2021/10/14 11:15:59;;;;;;;6.35;2.05;;;16.00;99.90;;;;;;4993640;28;20019;-76
2021/10/14 11:18:27;;;;;;;2.90;0.90;;;16.10;99.90;;;;;;4992415;28;20023;-77
2021/10/14 11:20:55;;;;;;;5.15;0.90;;;16.20;99.90;;;;;;4993507;28;20018;-75
2021/10/14 11:23:24;;;;;;;1.95;0.20;;;16.20;99.90;;;;;;4993482;28;20025;-75
2021/10/14 11:26:12;;;;;;;4.47;0.30;;;16.20;99.90;;;;;;4993599;28;20098;-75
2021/10/14 11:28:55;;;;;;;1.85;0.10;;;16.40;99.90;;;;;;4993562;28;20146;-75
2021/10/14 11:31:53;;;;;;;1.80;0.32;;;16.40;99.90;;;;;;4993507;28;20471;-75
2021/10/14 11:34:21;;;;;;;1.00;0.28;;;16.50;99.90;;;;;;4992164;28;20550;-76
2021/10/14 11:37:00;;;;;;;1.58;0.75;;;16.40;99.90;;;;;;4992178;28;20037;-76
2021/10/14 11:39:33;;;;;;;2.30;0.13;;;16.30;99.90;;;;;;4993670;28;20027;-76
2021/10/14 11:42:01;;;;;;;1.58;0.20;;;16.20;99.90;;;;;;4992086;28;20128;-76
2021/10/14 11:44:29;;;;;;;0.60;0.30;;;16.20;99.90;;;;;;4994378;28;20074;-76
2021/10/14 11:46:56;;;;;;;1.02;0.17;;;16.10;99.90;;;;;;4996847;28;20034;-76
2021/10/14 11:49:22;;;;;;;1.50;0.30;;;16.10;99.90;;;;;;4997294;28;20476;-76
2021/10/14 11:51:50;;;;;;;2.33;0.17;;;16.20;99.90;;;;;;4997080;28;20037;-75
2021/10/14 11:54:20;;;;;;;1.27;0.20;;;16.30;99.90;;;;;;4996758;28;20486;-75
2021/10/14 11:56:46;;;;;;;3.22;0.40;;;16.50;99.90;;;;;;4996651;28;20495;-76
2021/10/14 11:59:13;;;;;;;2.65;0.38;;;16.50;99.90;;;;;;4995295;28;20030;-75
2021/10/14 12:01:44;;;;;;;1.00;0.32;;;16.70;99.90;;;;;;4995944;28;20412;-75
2021/10/14 12:04:10;;;;;;;3.75;0.20;;;16.80;99.90;;;;;;4995259;28;20057;-75
2021/10/14 12:06:37;;;;;;;4.97;0.13;;;16.90;99.90;;;;;;4996498;28;20034;-75
2021/10/14 12:09:03;;;;;;;2.95;0.13;;;17.00;99.90;;;;;;4996475;28;20034;-75
2021/10/14 12:11:29;;;;;;;3.05;0.10;;;17.20;99.90;;;;;;4995019;28;20018;-75
2021/10/14 12:14:03;;;;;;;2.50;0.10;;;17.20;99.90;;;;;;4996883;28;20049;-75
2021/10/14 12:16:30;;;;;;;1.02;0.10;;;17.10;99.90;;;;;;4996398;28;20046;-76
2021/10/14 12:19:17;;;;;;;2.55;0.20;;;16.90;99.90;;;;;;4994992;28;20026;-77
2021/10/14 12:21:45;;;;;;;1.50;0.20;;;16.70;99.90;;;;;;4994869;28;20033;-76
2021/10/14 12:24:12;;;;;;;3.70;0.20;;;16.70;99.90;;;;;;4996229;28;20019;-75
2021/10/14 12:26:41;;;;;;;4.95;0.10;;;16.60;99.90;;;;;;4996121;28;20034;-75
2021/10/14 12:29:18;;;;;;;;;;;16.60;99.90;;;;;;4995268;28;20117;-75
2021/10/14 12:31:44;;;;;;;0.63;0.10;;;16.60;99.90;;;;;;4994636;28;20349;-75
2021/10/14 12:34:10;;;;;;;1.88;0.10;;;16.60;99.90;;;;;;4995973;28;20070;-75
2021/10/14 12:36:42;;;;;;;1.55;0.47;;;16.60;99.90;;;;;;4995911;28;20034;-75
2021/10/14 12:39:20;;;;;;;0.98;0.10;;;16.50;99.90;;;;;;4995841;28;20053;-75
2021/10/14 12:41:57;;;;;;;0.17;0.05;;;16.50;99.90;;;;;;4995883;28;20062;-75